createdAt,value
2018-08-10T00:02:53.218Z,16.77
2018-08-10T00:05:55.594Z,16.83
2018-08-10T00:08:57.860Z,16.88
2018-08-10T00:13:03.291Z,16.87
2018-08-10T00:16:05.669Z,16.86
2018-08-10T00:19:08.201Z,16.79
2018-08-10T00:22:10.583Z,16.76
2018-08-10T00:25:15.452Z,16.69
2018-08-10T00:28:17.697Z,16.66
2018-08-10T00:31:20.752Z,16.64
2018-08-10T00:34:22.942Z,16.57
2018-08-10T00:37:25.203Z,16.42
2018-08-10T00:40:28.041Z,16.40
2018-08-10T00:43:30.280Z,16.38
2018-08-10T00:46:32.699Z,16.41
2018-08-10T00:49:34.950Z,16.19
2018-08-10T00:52:38.990Z,16.14
2018-08-10T00:55:47.868Z,16.07
2018-08-10T00:58:50.145Z,15.93
2018-08-10T01:01:52.414Z,15.87
2018-08-10T01:04:54.806Z,15.73
2018-08-10T01:07:57.054Z,15.68
2018-08-10T01:10:59.367Z,15.76
2018-08-10T01:14:01.597Z,15.75
2018-08-10T01:17:03.927Z,15.66
2018-08-10T01:20:12.732Z,15.64
2018-08-10T01:23:15.883Z,15.56
2018-08-10T01:26:18.148Z,15.55
2018-08-10T01:29:20.474Z,15.50
2018-08-10T01:32:22.759Z,15.33
2018-08-10T01:35:25.616Z,15.28
2018-08-10T01:38:27.876Z,15.28
2018-08-10T01:41:30.150Z,15.25
2018-08-10T01:44:32.339Z,15.17
2018-08-10T01:47:34.684Z,15.15
2018-08-10T01:50:36.991Z,15.07
2018-08-10T01:53:39.366Z,14.94
2018-08-10T01:56:41.659Z,14.84
2018-08-10T01:59:43.907Z,14.85
2018-08-10T02:02:46.180Z,14.81
2018-08-10T02:05:48.349Z,14.75
2018-08-10T02:08:50.586Z,14.68
2018-08-10T02:11:52.853Z,14.65
2018-08-10T02:14:55.093Z,14.68
2018-08-10T02:17:57.387Z,14.58
2018-08-10T02:20:59.683Z,14.51
2018-08-10T02:24:01.844Z,14.53
2018-08-10T02:27:04.054Z,14.50
2018-08-10T02:30:07.936Z,14.40
2018-08-10T02:33:10.202Z,14.36
2018-08-10T02:36:12.504Z,14.25
2018-08-10T02:39:14.724Z,14.08
2018-08-10T02:42:17.095Z,13.95
2018-08-10T02:45:20.371Z,14.13
2018-08-10T02:48:22.583Z,14.31
2018-08-10T02:51:24.890Z,14.24
2018-08-10T02:54:27.090Z,14.12
2018-08-10T02:57:29.286Z,14.09
2018-08-10T03:00:31.596Z,13.91
2018-08-10T03:03:33.759Z,13.75
2018-08-10T03:06:36.037Z,13.64
2018-08-10T03:09:38.234Z,13.42
2018-08-10T03:12:40.566Z,13.26
2018-08-10T03:15:42.776Z,13.16
2018-08-10T03:18:45.025Z,13.13
2018-08-10T03:21:47.332Z,13.09
2018-08-10T03:24:49.653Z,13.10
2018-08-10T03:27:51.934Z,13.02
2018-08-10T03:30:54.248Z,12.95
2018-08-10T03:33:56.433Z,13.03
2018-08-10T03:36:58.605Z,13.23
2018-08-10T03:40:00.774Z,13.13
2018-08-10T03:43:03.013Z,13.01
2018-08-10T03:46:05.248Z,13.03
2018-08-10T03:49:07.518Z,13.00
2018-08-10T03:52:09.792Z,12.99
2018-08-10T03:55:12.251Z,12.89
2018-08-10T03:58:17.153Z,12.99
2018-08-10T04:01:19.397Z,13.03
2018-08-10T04:04:21.635Z,12.93
2018-08-10T04:07:24.669Z,12.84
2018-08-10T04:10:26.912Z,12.94
2018-08-10T04:13:29.227Z,12.86
2018-08-10T04:16:31.537Z,12.78
2018-08-10T04:19:33.844Z,12.93
2018-08-10T04:22:36.175Z,12.99
2018-08-10T04:25:38.372Z,13.13
2018-08-10T04:28:40.646Z,13.17
2018-08-10T04:31:42.893Z,13.16
2018-08-10T04:34:45.172Z,13.34
2018-08-10T04:37:47.384Z,13.56
2018-08-10T04:40:49.641Z,13.56
2018-08-10T04:43:51.873Z,13.64
2018-08-10T04:46:54.173Z,14.21
2018-08-10T04:49:56.343Z,16.22
2018-08-10T04:52:58.604Z,18.16
2018-08-10T04:56:00.890Z,19.05
2018-08-10T04:59:03.176Z,19.92
2018-08-10T05:02:06.135Z,19.99
2018-08-10T05:05:09.440Z,20.01
2018-08-10T05:08:11.715Z,20.29
2018-08-10T05:11:14.079Z,20.50
2018-08-10T05:14:16.389Z,20.98
2018-08-10T05:17:18.706Z,21.63
2018-08-10T05:20:21.041Z,20.82
2018-08-10T05:23:23.265Z,22.14
2018-08-10T05:26:25.488Z,22.04
2018-08-10T05:29:28.167Z,21.97
2018-08-10T05:32:30.414Z,23.02
2018-08-10T05:35:32.635Z,22.91
2018-08-10T05:38:35.046Z,21.60
2018-08-10T05:41:37.462Z,22.35
2018-08-10T05:44:39.681Z,22.12
2018-08-10T05:47:42.013Z,22.17
2018-08-10T05:50:44.651Z,22.12
2018-08-10T05:53:46.875Z,21.93
2018-08-10T05:56:49.070Z,21.44
2018-08-10T05:59:51.226Z,22.90
2018-08-10T06:02:53.437Z,22.45
2018-08-10T06:05:55.732Z,23.60
2018-08-10T06:08:57.967Z,24.13
2018-08-10T06:12:00.349Z,23.36
2018-08-10T06:15:02.557Z,23.38
2018-08-10T06:18:04.819Z,22.28
2018-08-10T06:21:08.622Z,22.53
2018-08-10T06:24:10.845Z,21.85
2018-08-10T06:27:13.001Z,20.86
2018-08-10T06:30:15.234Z,20.58
2018-08-10T06:33:17.441Z,21.36
2018-08-10T06:36:19.709Z,20.93
2018-08-10T06:39:22.016Z,21.02
2018-08-10T06:42:24.250Z,20.45
2018-08-10T06:45:26.422Z,21.68
2018-08-10T06:48:28.834Z,20.19
2018-08-10T06:51:31.327Z,20.48
2018-08-10T06:54:33.549Z,20.59
2018-08-10T06:57:36.333Z,19.48
2018-08-10T07:00:38.645Z,20.06
2018-08-10T07:03:41.376Z,21.56
2018-08-10T07:06:43.589Z,22.52
2018-08-10T07:09:45.860Z,20.32
2018-08-10T07:12:48.053Z,20.44
2018-08-10T07:15:50.269Z,21.48
2018-08-10T07:18:52.577Z,20.06
2018-08-10T07:21:54.848Z,20.49
2018-08-10T07:24:57.225Z,20.68
2018-08-10T07:27:59.491Z,20.77
2018-08-10T07:31:01.762Z,21.20
2018-08-10T07:34:04.030Z,21.80
2018-08-10T07:37:06.274Z,21.54
2018-08-10T07:40:08.619Z,20.94
2018-08-10T07:43:10.856Z,21.66
2018-08-10T07:46:13.080Z,20.71
2018-08-10T07:49:15.411Z,21.03
2018-08-10T07:52:17.620Z,19.65
2018-08-10T07:55:19.846Z,19.53
2018-08-10T07:58:22.680Z,20.29
2018-08-10T08:01:24.896Z,19.61
2018-08-10T08:04:27.157Z,19.09
2018-08-10T08:07:29.508Z,19.38
2018-08-10T08:10:31.723Z,19.04
2018-08-10T08:13:34.089Z,18.90
2018-08-10T08:16:36.581Z,19.13
2018-08-10T08:19:38.966Z,19.11
2018-08-10T08:22:41.295Z,19.11
2018-08-10T08:25:44.298Z,19.77
2018-08-10T08:28:46.591Z,20.51
2018-08-10T08:31:52.159Z,20.20
2018-08-10T08:34:54.646Z,19.96
2018-08-10T08:39:05.548Z,20.50
2018-08-10T08:42:07.866Z,19.65
2018-08-10T08:45:50.784Z,19.25
2018-08-10T08:48:52.776Z,19.99
2018-08-10T08:51:55.061Z,20.49
2018-08-10T08:55:09.505Z,20.67
2018-08-10T08:58:11.788Z,20.48
2018-08-10T09:01:14.541Z,20.48
2018-08-10T09:05:00.009Z,20.30
2018-08-10T09:08:04.977Z,20.69
2018-08-10T09:11:07.947Z,20.62
2018-08-10T09:14:42.198Z,20.34
2018-08-10T09:17:44.579Z,20.73
2018-08-10T09:20:46.890Z,20.72
2018-08-10T09:23:49.127Z,21.14
2018-08-10T09:26:51.439Z,21.11
2018-08-10T09:29:54.519Z,21.84
2018-08-10T09:32:56.791Z,21.08
2018-08-10T09:35:59.042Z,20.37
2018-08-10T09:39:01.320Z,20.76
2018-08-10T09:42:07.548Z,20.86
2018-08-10T09:45:10.560Z,21.15
2018-08-10T09:48:12.841Z,20.83
2018-08-10T09:51:15.045Z,20.32
2018-08-10T09:54:17.415Z,20.64
2018-08-10T09:57:19.600Z,21.04
2018-08-10T10:00:27.594Z,20.72
2018-08-10T10:03:30.929Z,20.61
2018-08-10T10:06:33.283Z,20.42
2018-08-10T10:09:35.524Z,20.35
2018-08-10T10:12:37.808Z,20.67
2018-08-10T10:15:40.290Z,21.67
2018-08-10T10:18:42.628Z,21.58
2018-08-10T10:21:44.820Z,20.82
2018-08-10T10:24:47.084Z,20.40
2018-08-10T10:27:49.450Z,20.26
2018-08-10T10:30:51.766Z,21.03
2018-08-10T10:33:53.963Z,21.64
2018-08-10T10:36:56.188Z,21.13
2018-08-10T10:40:01.733Z,20.57
2018-08-10T10:43:03.994Z,20.54
2018-08-10T10:46:06.448Z,20.52
2018-08-10T10:49:08.664Z,21.36
2018-08-10T10:52:13.027Z,21.01
2018-08-10T10:55:15.597Z,21.19
2018-08-10T10:58:17.848Z,21.04
2018-08-10T11:01:20.060Z,21.09
2018-08-10T11:04:22.366Z,21.07
2018-08-10T11:07:24.709Z,21.07
2018-08-10T11:10:26.973Z,21.57
2018-08-10T11:13:29.168Z,21.23
2018-08-10T11:17:06.093Z,21.15
2018-08-10T11:20:10.643Z,21.37
2018-08-10T11:23:12.877Z,21.43
2018-08-10T11:26:15.145Z,21.05
2018-08-10T11:29:17.386Z,21.69
2018-08-10T11:32:19.677Z,22.20
2018-08-10T11:35:22.058Z,22.22
2018-08-10T11:38:24.448Z,22.27
2018-08-10T11:41:26.876Z,21.97
2018-08-10T11:44:29.219Z,22.37
2018-08-10T11:47:31.442Z,21.61
2018-08-10T11:50:33.744Z,21.78
2018-08-10T11:53:36.071Z,22.09
2018-08-10T11:56:38.424Z,23.28
2018-08-10T11:59:40.698Z,22.78
2018-08-10T12:02:43.189Z,23.35
2018-08-10T12:05:45.410Z,23.26
2018-08-10T12:08:47.676Z,22.46
2018-08-10T12:11:50.767Z,23.19
2018-08-10T12:14:52.988Z,23.85
2018-08-10T12:17:55.250Z,24.49
2018-08-10T12:20:57.722Z,24.30
2018-08-10T12:24:00.192Z,24.97
2018-08-10T12:27:02.474Z,24.60
2018-08-10T12:30:06.075Z,25.01
2018-08-10T12:33:08.263Z,24.49
2018-08-10T12:36:10.628Z,23.65
2018-08-10T12:39:13.878Z,23.72
2018-08-10T12:42:16.196Z,23.38
2018-08-10T12:45:18.446Z,23.07
2018-08-10T12:48:20.697Z,22.86
2018-08-10T12:51:23.026Z,23.52
2018-08-10T12:54:25.252Z,23.45
2018-08-10T12:57:28.278Z,23.25
2018-08-10T13:00:30.559Z,22.67
2018-08-10T13:03:32.861Z,22.98
2018-08-10T13:06:35.189Z,22.78
2018-08-10T13:09:37.455Z,24.13
2018-08-10T13:12:39.735Z,24.17
2018-08-10T13:15:42.144Z,24.44
2018-08-10T13:18:44.408Z,24.95
2018-08-10T13:21:46.720Z,24.51
2018-08-10T13:24:48.953Z,24.10
2018-08-10T13:27:51.152Z,23.53
2018-08-10T13:30:53.405Z,23.08
2018-08-10T13:33:55.692Z,23.26
2018-08-10T13:36:57.960Z,23.40
2018-08-10T13:40:01.099Z,23.40
2018-08-10T13:43:03.435Z,23.46
2018-08-10T13:46:05.737Z,22.98
2018-08-10T13:49:08.079Z,22.90
2018-08-10T13:52:10.407Z,23.31
2018-08-10T13:55:15.755Z,23.70
2018-08-10T13:58:18.079Z,23.42
2018-08-10T14:01:20.441Z,24.56
2018-08-10T14:04:22.826Z,23.24
2018-08-10T14:07:25.492Z,24.11
2018-08-10T14:10:27.798Z,24.27
2018-08-10T14:13:29.997Z,24.48
2018-08-10T14:16:37.162Z,24.05
2018-08-10T14:19:39.440Z,23.44
2018-08-10T14:22:41.735Z,23.67
2018-08-10T14:25:43.955Z,23.58
2018-08-10T14:28:46.194Z,23.64
2018-08-10T14:31:48.490Z,24.09
2018-08-10T14:34:50.785Z,23.90
2018-08-10T14:37:53.039Z,24.13
2018-08-10T14:40:55.323Z,24.15
2018-08-10T14:43:58.297Z,23.75
2018-08-10T14:47:00.542Z,23.81
2018-08-10T14:50:04.298Z,24.35
2018-08-10T14:53:13.426Z,24.31
2018-08-10T14:56:15.666Z,23.98
2018-08-10T14:59:17.947Z,24.61
2018-08-10T15:02:20.401Z,25.01
2018-08-10T15:05:22.752Z,25.27
2018-08-10T15:08:24.975Z,25.06
2018-08-10T15:11:27.230Z,24.75
2018-08-10T15:14:29.538Z,24.78
2018-08-10T15:17:31.817Z,24.63
2018-08-10T15:20:34.032Z,24.17
2018-08-10T15:23:36.480Z,23.67
2018-08-10T15:26:38.899Z,23.44
2018-08-10T15:29:41.170Z,22.95
2018-08-10T15:32:43.600Z,22.83
2018-08-10T15:35:45.865Z,22.98
2018-08-10T15:38:48.172Z,24.21
2018-08-10T15:41:50.444Z,24.40
2018-08-10T15:44:52.738Z,24.63
2018-08-10T15:47:55.072Z,24.98
2018-08-10T15:50:57.539Z,25.05
2018-08-10T15:53:59.829Z,25.20
2018-08-10T15:57:02.301Z,24.24
2018-08-10T16:00:12.446Z,23.43
2018-08-10T16:03:14.777Z,24.02
2018-08-10T16:06:17.012Z,25.38
2018-08-10T16:09:19.341Z,25.56
2018-08-10T16:12:21.588Z,25.90
2018-08-10T16:15:23.917Z,25.81
2018-08-10T16:18:26.172Z,25.88
2018-08-10T16:21:28.502Z,25.26
2018-08-10T16:24:30.849Z,24.65
2018-08-10T16:27:33.130Z,24.81
2018-08-10T16:30:35.453Z,24.45
2018-08-10T16:33:37.733Z,23.71
2018-08-10T16:36:40.047Z,23.45
2018-08-10T16:39:42.531Z,23.27
2018-08-10T16:42:44.928Z,23.17
2018-08-10T16:45:47.201Z,23.55
2018-08-10T16:48:49.527Z,23.48
2018-08-10T16:51:51.927Z,23.05
2018-08-10T16:54:54.299Z,22.68
2018-08-10T16:57:56.645Z,22.41
2018-08-10T17:00:58.895Z,22.23
2018-08-10T17:04:01.360Z,22.06
2018-08-10T17:07:03.650Z,21.87
2018-08-10T17:10:06.568Z,21.71
2018-08-10T17:13:08.834Z,21.50
2018-08-10T17:16:12.241Z,21.35
2018-08-10T17:19:14.536Z,21.15
2018-08-10T17:22:16.852Z,21.07
2018-08-10T17:25:19.968Z,21.00
2018-08-10T17:28:22.495Z,20.98
2018-08-10T17:31:24.775Z,21.32
2018-08-10T17:34:28.072Z,22.43
2018-08-10T17:37:30.500Z,23.31
2018-08-10T17:40:32.994Z,23.57
2018-08-10T17:43:35.250Z,23.83
2018-08-10T17:46:37.629Z,23.85
2018-08-10T17:49:40.032Z,23.82
2018-08-10T17:52:44.927Z,23.05
2018-08-10T17:55:47.142Z,22.03
2018-08-10T17:58:49.589Z,21.72
2018-08-10T18:01:51.796Z,21.51
2018-08-10T18:04:54.232Z,21.25
2018-08-10T18:07:56.651Z,21.08
2018-08-10T18:10:58.885Z,20.94
2018-08-10T18:14:01.548Z,20.83
2018-08-10T18:17:03.927Z,20.73
2018-08-10T18:20:09.332Z,20.68
2018-08-10T18:23:11.581Z,20.83
2018-08-10T18:26:13.878Z,21.07
2018-08-10T18:29:16.929Z,20.96
2018-08-10T18:32:22.667Z,20.76
2018-08-10T18:35:25.210Z,20.40
2018-08-10T18:38:28.343Z,20.13
2018-08-10T18:41:30.862Z,20.00
2018-08-10T18:44:33.082Z,20.07
2018-08-10T18:47:35.445Z,20.07
2018-08-10T18:50:37.746Z,19.88
2018-08-10T18:53:40.600Z,19.62
2018-08-10T18:56:42.796Z,19.38
2018-08-10T18:59:45.046Z,18.99
2018-08-10T19:02:47.325Z,18.74
2018-08-10T19:05:50.720Z,18.55
2018-08-10T19:08:53.049Z,18.43
2018-08-10T19:11:55.267Z,18.28
2018-08-10T19:14:57.595Z,18.09
2018-08-10T19:17:59.819Z,17.99
2018-08-10T19:21:02.096Z,17.94
2018-08-10T19:24:04.344Z,17.96
2018-08-10T19:27:06.637Z,18.03
2018-08-10T19:33:25.425Z,17.88
2018-08-10T19:36:28.297Z,17.66
2018-08-10T19:39:30.626Z,17.58
2018-08-10T19:42:32.831Z,17.55
2018-08-10T19:45:35.070Z,17.76
2018-08-10T19:48:37.400Z,17.87
2018-08-10T19:51:39.544Z,17.94
2018-08-10T19:54:41.927Z,17.97
2018-08-10T19:57:44.185Z,17.77
2018-08-10T20:00:46.495Z,17.60
2018-08-10T20:03:48.769Z,17.53
2018-08-10T20:06:51.012Z,17.50
2018-08-10T20:09:53.272Z,17.63
2018-08-10T20:12:55.671Z,17.71
2018-08-10T20:15:58.041Z,17.76
2018-08-10T20:19:00.541Z,17.73
2018-08-10T20:22:02.900Z,17.64
2018-08-10T20:25:06.230Z,17.60
2018-08-10T20:28:08.603Z,17.47
2018-08-10T20:31:12.012Z,17.33
2018-08-10T20:34:14.269Z,17.23
2018-08-10T20:37:16.529Z,17.24
2018-08-10T20:40:19.250Z,17.12
2018-08-10T20:43:21.528Z,17.00
2018-08-10T20:46:23.820Z,16.99
2018-08-10T20:49:26.165Z,17.06
2018-08-10T20:52:28.458Z,17.13
2018-08-10T20:55:30.835Z,17.16
2018-08-10T20:58:33.073Z,17.17
2018-08-10T21:01:35.336Z,17.13
2018-08-10T21:04:37.613Z,17.07
2018-08-10T21:07:39.985Z,17.00
2018-08-10T21:10:42.307Z,16.89
2018-08-10T21:13:45.278Z,16.80
2018-08-10T21:16:47.664Z,16.56
2018-08-10T21:19:50.116Z,16.30
2018-08-10T21:22:52.383Z,16.05
2018-08-10T21:25:54.672Z,15.93
2018-08-10T21:28:56.959Z,15.82
2018-08-10T21:31:59.277Z,15.61
2018-08-10T21:35:02.865Z,15.44
2018-08-10T21:38:05.190Z,15.25
2018-08-10T21:41:07.383Z,15.18
2018-08-10T21:44:09.831Z,15.05
2018-08-10T21:47:12.080Z,14.84
2018-08-10T21:50:14.802Z,14.77
2018-08-10T21:53:17.128Z,14.83
2018-08-10T21:56:19.760Z,14.77
2018-08-10T21:59:22.024Z,14.84
2018-08-10T22:02:25.185Z,14.81
2018-08-10T22:05:27.500Z,14.82
2018-08-10T22:08:30.523Z,14.61
2018-08-10T22:11:32.782Z,14.43
2018-08-10T22:16:47.972Z,14.41
2018-08-10T22:19:50.214Z,14.47
2018-08-10T22:22:52.503Z,14.44
2018-08-10T22:25:55.116Z,14.48
2018-08-10T22:28:57.369Z,14.28
2018-08-10T22:31:59.698Z,14.14
2018-08-10T22:35:01.947Z,14.05
2018-08-10T22:38:04.172Z,13.95
2018-08-10T22:41:06.497Z,13.89
2018-08-10T22:44:08.698Z,13.89
2018-08-10T22:47:11.016Z,13.96
2018-08-10T22:50:13.221Z,13.83
2018-08-10T22:53:15.676Z,13.55
2018-08-10T22:56:17.933Z,13.38
2018-08-10T22:59:20.183Z,13.32
2018-08-10T23:02:22.493Z,13.24
2018-08-10T23:05:24.726Z,13.21
2018-08-10T23:08:27.137Z,13.15
2018-08-10T23:11:29.408Z,13.12
2018-08-10T23:14:32.500Z,13.19
2018-08-10T23:17:34.947Z,13.16
2018-08-10T23:20:37.228Z,13.13
2018-08-10T23:23:39.477Z,13.10
2018-08-10T23:26:41.718Z,13.25
2018-08-10T23:29:44.065Z,13.29
2018-08-10T23:32:46.284Z,13.25
2018-08-10T23:35:48.629Z,13.42
2018-08-10T23:38:50.876Z,13.50
2018-08-10T23:41:53.184Z,14.06
2018-08-10T23:44:55.575Z,14.59
2018-08-10T23:47:57.893Z,14.94
2018-08-10T23:51:00.930Z,15.08
2018-08-10T23:54:03.585Z,15.17
2018-08-10T23:57:05.844Z,15.22
